• Join FlightAware (Why Join?)
  • Login
  • US Flag 
01:53PM EDT


 

Airport Tracker/Info


-or-


 

Live Flight TrackerFlight Track Log ✈ ASQ5941 ✈ 14-Apr-2013 ✈ KAVP - KORD

Flight Track Log - Related Links

Times and Time Zones

All times are in EDT time to prevent confusion due to time zone crossing. See the ASQ5941 flight status page for this flight to view local times or setup timezone preferences in your user account.

Time Position Orientation Groundspeed Altitude Reporting Facility
EDT Latitude Longitude Course Direction KTS MPH feet Rate Location/Type
05:12PM 41.3773 -75.8547 304° West  Level FlightAware Approximate
05:12PM 41.4717 -75.7381 324° Northwest 236 272 7,300  Level New York Center
05:13PM 41.4242 -75.9378 315° West  Level FlightAware Approximate
05:13PM 41.5194 -75.7886 322° Northwest 236 272 9,800  Level New York Center
05:14PM 41.4724 -76.0243 315° West  Level FlightAware Approximate
05:14PM 41.5792 -75.8569 319° Northwest 248 285 11,000  Level New York Center
05:15PM 41.5290 -76.1018 312° West  Level FlightAware Approximate
05:15PM 41.6047 -75.9419 292° West 262 302 12,500  Level New York Center
05:16PM 41.6014 -76.1968 306° West  Level FlightAware Approximate
05:16PM 41.6336 -76.0414 291° West 282 325 14,100  Level New York Center
05:17PM 41.6639 -76.1519 290° West 292 336 15,900 1,500 Climbing New York Center
05:18PM 41.6928 -76.2517 291° West 292 336 17,100 1,140 Climbing New York Center
05:19PM 41.7194 -76.3483 290° West 298 343 18,200 960 Climbing New York Center
05:20PM 41.7500 -76.4539 291° West 298 343 19,100 1,020 Climbing New York Center
05:21PM 41.7833 -76.5789 290° West 313 360 20,300 1,140 Climbing New York Center
05:22PM 41.8153 -76.6931 291° West 319 367 21,400 1,020 Climbing New York Center
05:23PM 41.8489 -76.8131 291° West 332 382 22,400 960 Climbing New York Center
05:24PM 41.8833 -76.9319 291° West 332 382 23,400 1,140 Climbing Cleveland Center
05:25PM 41.9117 -77.0392 290° West 319 367 24,700 1,200 Climbing Cleveland Center
05:26PM 41.9422 -77.1547 290° West 319 367 25,800 600 Climbing Cleveland Center
05:27PM 41.9769 -77.2731 292° West 324 373 26,000 60 Climbing Cleveland Center
05:28PM 42.0097 -77.3972 290° West 341 392 26,000  Level Cleveland Center
05:29PM 42.0425 -77.5269 289° West 352 405 26,000  Level Cleveland Center
05:30PM 42.0792 -77.6567 291° West 364 419 26,000  Level Cleveland Center
05:31PM 42.1139 -77.7922 289° West 369 425 26,000  Level Cleveland Center
05:32PM 42.1506 -77.9364 289° West 375 432 26,000  Level Cleveland Center
05:33PM 42.1847 -78.0722 289° West 375 432 26,000  Level Cleveland Center
05:34PM 42.2189 -78.2000 290° West 375 432 26,000  Level Cleveland Center
05:35PM 42.2528 -78.3306 289° West 375 432 26,000  Level Cleveland Center
05:36PM 42.2864 -78.4614 289° West 375 432 26,000  Level Cleveland Center
05:37PM 42.3200 -78.5894 290° West 375 432 26,000  Level Cleveland Center
05:38PM 42.3536 -78.7203 289° West 375 432 26,000  Level Cleveland Center
05:39PM 42.3867 -78.8517 289° West 375 432 26,000  Level Cleveland Center
05:40PM 42.4200 -78.9828 289° West 370 426 26,000  Level Cleveland Center
05:41PM 42.4508 -79.1172 287° West 375 432 26,000  Level Cleveland Center
05:42PM 42.4858 -79.2514 290° West 375 432 26,000  Level Cleveland Center
05:43PM 42.4958 -79.3978 275° West 388 447 26,000  Level Cleveland Center
05:44PM 42.5056 -79.5328 276° West 388 447 26,000  Level Cleveland Center
05:45PM 42.5131 -79.6761 274° West 388 447 26,000  Level Cleveland Center
05:46PM 42.5203 -79.8142 274° West 383 441 26,000  Level Cleveland Center
05:47PM 42.5253 -79.9606 273° West 383 441 26,000  Level Cleveland Center
05:48PM 42.5281 -80.1042 272° West 383 441 26,000  Level Cleveland Center
05:49PM 42.5347 -80.2478 274° West 383 441 26,000  Level Cleveland Center
05:50PM 42.5392 -80.3917 272° West 383 441 26,000  Level Cleveland Center
05:51PM 42.5478 -80.5353 275° West 383 441 26,000  Level Cleveland Center
05:52PM 42.5519 -80.6875 272° West 389 448 26,000  Level Cleveland Center
05:53PM 42.5578 -80.8256 273° West 383 441 26,000  Level Cleveland Center
05:54PM 42.5617 -80.9722 272° West 389 448 26,000  Level Cleveland Center
05:55PM 42.5694 -81.1189 274° West 390 449 26,000  Level Cleveland Center
05:56PM 42.5728 -81.2711 272° West 395 455 26,000  Level Cleveland Center
05:57PM 42.5781 -81.4178 273° West 401 461 26,000  Level Cleveland Center
05:58PM 42.6019 -81.5619 283° West 396 456 26,000  Level Cleveland Center
06:00PM 42.6492 -81.8394 283° West 396 456 26,000  Level Cleveland Center
06:01PM 42.6767 -81.9839 285° West 396 456 26,000  Level Cleveland Center
06:02PM 42.7000 -82.1286 282° West 396 456 26,000  Level Cleveland Center
06:03PM 42.7250 -82.2733 283° West 396 456 26,000  Level Cleveland Center
06:04PM 42.7478 -82.4153 282° West 396 456 26,000  Level Cleveland Center
06:05PM 42.7725 -82.5575 283° West 396 456 26,000  Level Cleveland Center
06:06PM 42.7972 -82.6997 283° West 396 456 26,000  Level Cleveland Center
06:07PM 42.8678 -82.8183 309° West 391 450 26,000  Level Cleveland Center
06:08PM 42.9533 -82.9264 317° Northwest 391 450 26,000  Level Cleveland Center
06:09PM 42.9733 -83.0661 281° West 376 433 26,000  Level Cleveland Center
06:10PM 42.9700 -83.2106 268° West 371 427 26,000  Level Cleveland Center
06:11PM 42.9661 -83.3781 268° West 392 451 26,000  Level Cleveland Center
06:12PM 42.9667 -83.5256 270° West 392 451 26,000  Level Cleveland Center
06:13PM 42.9647 -83.6758 269° West 397 457 26,000  Level Cleveland Center
06:14PM 42.9564 -83.8258 266° West 403 464 26,000  Level Cleveland Center
06:15PM 42.9439 -83.9728 263° West 403 464 26,000  Level Cleveland Center
06:17PM 42.9169 -84.2497 263° West 397 457 26,000  Level Chicago Center
06:18PM 42.9025 -84.4003 263° West 400 460 26,000  Level Chicago Center
06:19PM 42.8881 -84.5494 263° West 399 459 26,000  Level Chicago Center
06:20PM 42.8722 -84.7003 262° West 403 464 26,000  Level Chicago Center
06:22PM 42.8414 -84.9983 262° West 398 458 26,000  Level Chicago Center
06:23PM 42.8219 -85.1781 262° West 400 460 26,000  Level Chicago Center
06:24PM 42.8050 -85.3278 261° West 401 461 26,000  Level Chicago Center
06:25PM 42.7886 -85.4775 262° West 400 460 26,000 -480 Level Chicago Center
06:26PM 42.7650 -85.6167 257° West 381 438 25,100 -1,020 Descending Chicago Center
06:27PM 42.7411 -85.7508 256° West 366 421 23,900 -1,260 Descending Chicago Center
06:28PM 42.7181 -85.8783 256° West 351 404 22,500 -1,440 Descending Chicago Center
06:29PM 42.6944 -86.0044 256° West 344 396 21,000 -1,260 Descending Chicago Center
06:30PM 42.6667 -86.1542 256° West 340 391 20,000 -540 Descending Chicago Center
06:31PM 42.6450 -86.2769 257° West 336 387 20,000 -300 Level Chicago Center
06:32PM 42.6217 -86.3964 255° West 329 379 19,400 -1,020 Descending Chicago Center
06:33PM 42.5994 -86.5192 256° West 334 384 17,900 -1,380 Descending Chicago Center
06:34PM 42.5786 -86.6308 256° West 311 358 16,600 -1,380 Descending Chicago Center
06:35PM 42.5581 -86.7364 255° West 294 338 15,100 -1,500 Descending Chicago Center
06:36PM 42.5317 -86.8311 249° West 275 316 13,500 -1,560 Descending Chicago Center
06:37PM 42.5019 -86.9422 250° West 263 303 11,900 -1,380 Descending Chicago Center
06:38PM 42.4769 -87.0331 250° West 258 297 10,700 -1,200 Descending Chicago Center
06:39PM 42.4519 -87.1228 249° West 257 296 9,500 -840 Descending Chicago Center
06:40PM 42.4222 -87.2122 246° West 261 300 9,000 -300 Descending Chicago Center
06:41PM 42.3833 -87.2917 236° Southwest 253 291 9,000  Level Chicago Center
06:42PM 42.3453 -87.3706 237° Southwest 252 290 9,000  Level Chicago Center
06:43PM 42.3039 -87.4603 238° Southwest 242 278 9,000 -720 Level Chicago Center
06:44PM 42.2697 -87.5367 239° Southwest 240 276 7,600 -1,440 Descending Chicago Center
06:46PM 42.2378 -87.6139 241° Southwest 236 272 6,100 -1,320 Descending Chicago Center
06:47PM 42.2056 -87.6686 232° Southwest 198 228 4,900 -960 Descending Chicago Center
06:48PM 42.1536 -87.7219 217° Southwest 196 226 4,200 -660 Descending Chicago Center
06:49PM 42.1131 -87.7697 221° Southwest 195 224 3,600 -840 Descending Chicago Center
06:50PM 42.0667 -87.8167 217° Southwest 181 208 2,600 -960 Descending Chicago TRACON
06:51PM 42.0333 -87.8500 217° Southwest 137 158 1,700 -840 Descending Chicago TRACON
06:52PM 42.0000 -87.8833 217° Southwest 143 165 1,000 -720 Descending Chicago TRACON